Flight Track Log - Related Links

Times and Time Zones

All times are in EDT time to prevent confusion due to time zone crossing. See the KAP46 flight status page for this flight to view local times or setup timezone preferences in your user account.

Time Position Orientation Groundspeed Altitude Reporting Facility
EDT Latitude Longitude Course Direction KTS MPH feet Rate Location/Type
Fri 02:40:14 PM 42.7881 -73.8067 359° North 118 136 1,400  Level Boston Center
Fri 02:41:14 PM 42.8192 -73.8214 341° North 125 144 1,900 574 Climbing Boston Center
Fri 02:42:09 PM 42.8525 -73.8364 342° North 125 144 2,500 569 Climbing Boston Center
Fri 02:43:10 PM 42.8836 -73.8511 341° North 125 144 3,000 593 Climbing Boston Center
Fri 02:46:12 PM 42.9869 -73.9019 340° North 131 151 4,900 593 Climbing Boston Center
Fri 02:47:13 PM 43.0244 -73.9142 347° North 133 153 5,400 496 Climbing Boston Center
Fri 02:48:13 PM 43.0597 -73.9319 340° North 136 157 5,900 533 Climbing Boston Center
Fri 02:48:43 PM 43.0761 -73.9436 333° Northwest 138 159 6,200 533 Climbing Boston Center
Fri 02:49:43 PM 43.1136 -73.9561 346° North 140 161 6,700 500 Climbing Boston Center
Fri 02:50:43 PM 43.1486 -73.9711 343° North 140 161 7,200 504 Climbing Boston Center
Fri 02:51:42 PM 43.1736 -73.9861 336° Northwest 140 161 7,700 650 Climbing Boston Center
Fri 02:52:43 PM 43.2169 -74.0042 343° North 140 161 8,500 545 Climbing Boston Center
Fri 02:53:43 PM 43.2583 -74.0253 340° North 135 155 8,800 400 Climbing Boston Center
Fri 02:54:43 PM 43.2936 -74.0433 340° North 135 155 9,300 550 Climbing Boston Center
Fri 02:55:43 PM 43.3350 -74.0642 342° North 140 161 9,900 550 Climbing Boston Center
Fri 02:56:43 PM 43.3681 -74.0794 341° North 140 161 10,400 300 Climbing Boston Center
Fri 02:57:43 PM 43.4117 -74.0978 343° North 140 161 10,500 101 Climbing Boston Center
Fri 02:58:42 PM 43.4406 -74.1128 339° North 148 170 10,600 50 Climbing Boston Center
Fri 02:59:43 PM 43.4903 -74.1372 340° North 148 170 10,600  Level Boston Center
Fri 03:00:43 PM 43.5317 -74.1583 340° North 148 170 10,600  Level Boston Center
Fri 03:01:43 PM 43.5731 -74.1767 342° North 148 170 10,600 100 Level Boston Center
Fri 03:02:43 PM 43.6122 -74.1981 338° Northwest 148 170 10,800 250 Climbing Boston Center
Fri 03:03:43 PM 43.6517 -74.2133 344° North 148 170 11,100 300 Climbing Boston Center
Fri 03:04:43 PM 43.6869 -74.2317 339° North 148 170 11,400 250 Climbing Boston Center
Fri 03:05:43 PM 43.7261 -74.2500 341° North 148 170 11,600 100 Climbing Boston Center
Fri 03:06:43 PM 43.7611 -74.2683 339° North 148 170 11,600  Level Boston Center
Fri 03:07:54 PM 43.8028 -74.2869 342° North 148 170 11,600 -91 Level Boston Center
Fri 03:08:55 PM 43.8542 -74.3144 339° North 148 170 11,400 -295 Descending Boston Center
Fri 03:09:56 PM 43.8956 -74.3331 342° North 153 176 11,000 -400 Descending Boston Center
Fri 03:10:55 PM 43.9453 -74.3578 340° North 163 188 10,600 -403 Descending Boston Center
Fri 03:11:55 PM 43.9908 -74.3764 344° North 168 193 10,200 -400 Descending Boston Center
Fri 03:12:55 PM 44.0403 -74.4011 340° North 168 193 9,800 -400 Descending Boston Center
Fri 03:13:55 PM 44.0858 -74.4228 341° North 168 193 9,400 -400 Descending Boston Center
Fri 03:14:55 PM 44.1311 -74.4503 336° Northwest 168 193 9,000 -450 Descending Boston Center
Fri 03:15:55 PM 44.1744 -74.4894 327° Northwest 174 200 8,500 -500 Descending Boston Center
Fri 03:16:55 PM 44.2217 -74.5258 331° Northwest 182 209 8,000 -450 Descending Boston Center
Fri 03:17:55 PM 44.2733 -74.5422 347° North 182 209 7,600 -400 Descending Boston Center
Fri 03:18:55 PM 44.3231 -74.5556 349° North 182 209 7,200 -450 Descending Boston Center
Fri 03:19:55 PM 44.3731 -74.5661 351° North 187 215 6,700 -500 Descending Boston Center
Fri 03:20:55 PM 44.4225 -74.5911 340° North 182 209 6,200 -450 Descending Boston Center
Fri 03:21:55 PM 44.4719 -74.6161 340° North 187 215 5,800 -450 Descending Boston Center
Fri 03:22:55 PM 44.5217 -74.6383 342° North 187 215 5,300 -450 Descending Boston Center
Fri 03:23:55 PM 44.5711 -74.6636 340° North 187 215 4,900 2,600 Descending Boston Center
Fri 03:24:55 PM 44.6186 -74.6858 342° North 187 215 10,500 5,600 Climbing Boston Center

Login

Don't have an account? Register now (free) for customized features, flight alerts, and more!